Time;durP1;ratioP1;P1;durP2;ratioP2;P2;SDS_P1;SDS_P2;PMS_P1;PMS_P2;Temp;Humidity;BMP_temperature;BMP_pressure;BME280_temperature;BME280_humidity;BME280_pressure;Samples;Min_cycle;Max_cycle;Signal;HPM_P1;HPM_P2
2022/08/22 00:02:36;;;;;;;;;6.50;4.50;;;;;22.19;48.00;100862.22;5080364;27;45217;-56
2022/08/22 00:05:10;;;;;;;;;5.25;5.00;;;;;22.19;47.81;100872.91;5060019;28;45509;-57
2022/08/22 00:07:52;;;;;;;;;5.25;4.50;;;;;22.18;47.84;100869.34;5045876;28;45405;-56
2022/08/22 00:10:30;;;;;;;;;6.25;6.25;;;;;22.14;47.88;100859.91;5042342;27;46302;-57
2022/08/22 00:13:07;;;;;;;;;6.00;5.00;;;;;22.20;47.22;100871.91;5063006;28;45506;-56
2022/08/22 00:15:39;;;;;;;;;9.50;5.50;;;;;22.18;47.38;100866.69;5076335;27;45515;-56
2022/08/22 00:18:13;;;;;;;;;6.25;5.00;;;;;22.17;47.08;100853.50;5074031;27;45337;-57
2022/08/22 00:21:12;;;;;;;;;6.25;4.75;;;;;22.17;47.32;100849.00;5069813;27;45405;-56
2022/08/22 00:23:44;;;;;;;;;5.00;5.00;;;;;22.20;47.56;100845.25;5053046;28;45399;-56
2022/08/22 00:26:19;;;;;;;;;5.25;5.00;;;;;22.21;47.22;100841.63;5081423;27;45381;-58
2022/08/22 00:29:07;;;;;;;;;5.00;4.25;;;;;22.22;47.62;100840.66;5061270;28;45389;-56
2022/08/22 00:31:38;;;;;;;;;6.00;5.00;;;;;22.22;46.96;100834.47;5050644;28;47211;-57
2022/08/22 00:34:08;;;;;;;;;5.75;5.00;;;;;22.21;47.51;100830.97;5063207;28;45386;-57
2022/08/22 00:36:50;;;;;;;;;6.50;6.00;;;;;22.21;47.47;100838.97;5058934;28;45410;-56
2022/08/22 00:39:25;;;;;;;;;4.25;4.00;;;;;22.21;47.33;100830.13;5057435;28;45364;-57
2022/08/22 00:42:02;;;;;;;;;5.00;4.00;;;;;22.22;47.32;100837.16;5047521;28;45364;-57
2022/08/22 00:45:05;;;;;;;;;6.25;4.00;;;;;22.21;47.04;100830.13;5059806;28;45334;-56
2022/08/22 00:47:36;;;;;;;;;8.00;4.00;;;;;22.21;46.92;100838.13;5042518;28;45460;-57
2022/08/22 00:50:29;;;;;;;;;4.25;4.00;;;;;22.21;47.07;100841.63;5049670;28;45379;-57
2022/08/22 00:53:25;;;;;;;;;8.00;5.75;;;;;22.22;47.35;100845.16;5058880;28;45671;-56
2022/08/22 00:56:09;;;;;;;;;4.50;4.25;;;;;22.20;47.37;100847.91;5049418;28;45327;-57
2022/08/22 00:59:06;;;;;;;;;5.25;4.50;;;;;22.16;47.18;100844.63;5059922;28;45364;-56
2022/08/22 01:01:36;;;;;;;;;6.00;4.00;;;;;22.13;47.04;100838.69;5041154;28;45506;-57
2022/08/22 01:04:20;;;;;;;;;4.00;3.50;;;;;22.12;46.89;100834.34;5055817;28;45518;-57
2022/08/22 01:07:20;;;;;;;;;8.75;4.00;;;;;22.12;46.85;100853.84;5048891;28;45374;-56
2022/08/22 01:09:58;;;;;;;;;5.00;5.00;;;;;22.11;46.72;100848.59;5051121;28;45233;-56
2022/08/22 01:12:40;;;;;;;;;5.50;3.50;;;;;22.11;47.36;100857.44;5055151;28;45557;-55
2022/08/22 01:15:16;;;;;;;;;7.25;3.00;;;;;22.10;47.10;100849.59;5040786;28;46101;-56
2022/08/22 01:18:03;;;;;;;;;4.00;2.25;;;;;22.09;46.54;100848.72;5058324;28;45309;-55
2022/08/22 01:20:28;;;;;;;;;5.25;4.00;;;;;22.08;47.07;100844.38;5059792;28;45560;-55
2022/08/22 01:23:27;;;;;;;;;4.33;3.00;;;;;22.04;46.50;100848.19;5048203;28;45326;-55
2022/08/22 01:25:58;;;;;;;;;5.75;5.00;;;;;22.02;47.05;100847.47;5050919;28;46144;-56
2022/08/22 01:28:35;;;;;;;;;4.25;3.00;;;;;21.99;46.86;100842.34;5058120;28;45651;-56
2022/08/22 01:31:32;;;;;;;;;4.00;2.50;;;;;21.96;46.83;100846.13;5064824;27;45434;-56
2022/08/22 01:34:18;;;;;;;;;5.00;3.00;;;;;21.94;46.96;100844.53;5071422;28;45418;-55
2022/08/22 01:37:14;;;;;;;;;3.00;3.00;;;;;21.91;46.90;100828.75;5079845;27;46372;-56
2022/08/22 01:40:14;;;;;;;;;4.00;2.75;;;;;21.88;46.92;100827.16;5074667;27;45728;-57
2022/08/22 01:42:58;;;;;;;;;4.50;3.00;;;;;21.85;46.63;100827.41;5075328;27;45515;-56
2022/08/22 01:45:54;;;;;;;;;3.00;3.00;;;;;21.83;46.65;100825.81;5058289;28;45331;-56
2022/08/22 01:48:38;;;;;;;;;4.00;4.00;;;;;21.83;46.82;100817.81;5057408;28;47183;-57
2022/08/22 01:51:27;;;;;;;;;4.50;4.50;;;;;21.82;46.95;100814.31;5058648;27;46038;-56
2022/08/22 01:54:09;;;;;;;;;6.00;5.00;;;;;21.80;47.14;100816.22;5060592;27;45370;-56
2022/08/22 01:56:39;;;;;;;;;4.25;3.50;;;;;21.78;47.08;100820.81;5050898;28;45503;-56
2022/08/22 01:59:11;;;;;;;;;5.75;3.25;;;;;21.78;46.95;100824.34;5061322;28;45398;-56
2022/08/22 02:01:42;;;;;;;;;4.50;3.50;;;;;21.79;46.93;100822.50;5061766;28;45375;-56
2022/08/22 02:04:27;;;;;;;;;4.00;3.00;;;;;21.80;46.92;100826.88;5078885;28;45787;-57
2022/08/22 02:07:07;;;;;;;;;5.75;4.75;;;;;21.77;46.80;100825.28;5049620;28;45403;-56
2022/08/22 02:09:52;;;;;;;;;6.50;2.75;;;;;21.74;46.68;100825.53;5080089;27;46388;-56
2022/08/22 02:12:17;;;;;;;;;4.00;4.00;;;;;21.74;46.93;100830.84;5068690;27;45483;-56
2022/08/22 02:14:49;;;;;;;;;7.00;6.00;;;;;21.76;46.82;100833.38;5068418;28;45349;-54
2022/08/22 02:17:32;;;;;;;;;3.25;3.25;;;;;21.75;47.11;100837.88;5050894;28;45331;-57
2022/08/22 02:20:10;;;;;;;;;4.00;4.00;;;;;21.74;46.61;100833.53;5076014;28;46287;-56
2022/08/22 02:22:50;;;;;;;;;5.50;4.00;;;;;21.73;47.04;100828.31;5044544;28;45362;-54
2022/08/22 02:25:20;;;;;;;;;5.50;4.00;;;;;21.70;46.81;100826.69;5047163;28;45257;-57
2022/08/22 02:27:53;;;;;;;;;6.75;2.50;;;;;21.70;46.60;100828.50;5049649;28;45416;-56
2022/08/22 02:30:27;;;;;;;;;3.75;3.75;;;;;21.66;46.81;100835.88;5087531;27;45329;-56
2022/08/22 02:33:09;;;;;;;;;3.50;3.00;;;;;21.63;47.03;100832.59;5054225;28;45255;-56
2022/08/22 02:35:41;;;;;;;;;2.50;2.50;;;;;21.61;47.13;100822.03;5052297;28;45276;-56
2022/08/22 02:38:30;;;;;;;;;4.00;4.00;;;;;21.59;47.26;100823.97;5047135;28;45476;-56
2022/08/22 02:41:16;;;;;;;;;4.25;3.00;;;;;21.56;47.17;100829.50;5069097;27;45602;-56
2022/08/22 02:43:52;;;;;;;;;2.25;2.25;;;;;21.50;46.71;100838.78;5048983;28;45678;-56
2022/08/22 02:46:22;;;;;;;;;3.00;2.75;;;;;21.48;46.59;100839.84;5058852;28;45408;-56
2022/08/22 02:48:56;;;;;;;;;3.50;3.50;;;;;21.46;46.65;100839.97;5053036;28;45442;-56
2022/08/22 02:51:57;;;;;;;;;3.75;2.50;;;;;21.46;46.75;100836.44;5078860;27;45532;-56
2022/08/22 02:54:51;;;;;;;;;2.75;2.75;;;;;21.46;46.91;100823.13;5028763;28;45745;-56
2022/08/22 02:57:39;;;;;;;;;5.00;2.00;;;;;21.43;47.08;100822.34;5063380;27;45296;-57
2022/08/22 03:00:15;;;;;;;;;4.25;3.50;;;;;21.46;46.68;100826.66;5061186;28;45437;-56
2022/08/22 03:02:58;;;;;;;;;4.25;3.00;;;;;21.44;47.10;100831.19;5055623;28;46412;-56
2022/08/22 03:05:45;;;;;;;;;5.50;3.25;;;;;21.42;47.08;100833.13;5080747;27;45180;-56
2022/08/22 03:08:20;;;;;;;;;3.50;3.50;;;;;21.39;47.31;100830.69;5064720;27;45328;-56
2022/08/22 03:11:09;;;;;;;;;4.00;4.00;;;;;21.34;46.84;100823.03;5081960;27;45414;-56
2022/08/22 03:14:12;;;;;;;;;4.00;3.00;;;;;21.32;47.27;100830.28;5065736;27;45399;-56
2022/08/22 03:16:44;;;;;;;;;3.50;2.50;;;;;21.30;46.91;100824.22;5075931;27;45886;-56
2022/08/22 03:19:19;;;;;;;;;6.00;3.25;;;;;21.30;47.25;100824.22;5064937;27;45343;-56
2022/08/22 03:21:54;;;;;;;;;8.25;2.25;;;;;21.30;47.33;100831.31;5050862;27;45502;-55
2022/08/22 03:24:49;;;;;;;;;5.00;2.25;;;;;21.30;47.38;100828.66;5106639;27;45521;-56
2022/08/22 03:27:24;;;;;;;;;3.00;3.00;;;;;21.30;47.35;100829.53;5040236;27;45398;-56
2022/08/22 03:29:53;;;;;;;;;5.00;3.00;;;;;21.28;47.22;100825.25;5071511;27;45519;-56
2022/08/22 03:32:24;;;;;;;;;3.75;3.00;;;;;21.28;47.52;100825.25;5069300;28;45505;-57
2022/08/22 03:35:02;;;;;;;;;4.50;3.00;;;;;21.28;47.68;100827.91;5053093;27;45484;-55
2022/08/22 03:37:36;;;;;;;;;8.00;3.00;;;;;21.24;47.28;100828.13;5064319;28;45759;-55
2022/08/22 03:40:20;;;;;;;;;3.00;3.00;;;;;21.25;47.26;100821.03;5080233;27;45375;-56
2022/08/22 03:43:07;;;;;;;;;5.25;3.25;;;;;21.26;47.70;100819.19;5079793;27;45441;-56
2022/08/22 03:45:57;;;;;;;;;6.25;4.00;;;;;21.24;47.71;100821.97;5070290;27;47441;-56
2022/08/22 03:48:54;;;;;;;;;4.25;3.25;;;;;21.25;47.68;100815.69;5082176;27;45279;-56
2022/08/22 03:51:44;;;;;;;;;4.00;3.00;;;;;21.26;47.92;100821.84;5061709;27;45363;-56
2022/08/22 03:54:28;;;;;;;;;7.00;4.00;;;;;21.26;47.47;100816.53;5080688;27;45359;-56
2022/08/22 03:57:31;;;;;;;;;4.50;4.00;;;;;21.23;47.60;100821.13;5081324;27;45912;-57
2022/08/22 04:00:13;;;;;;;;;4.00;4.00;;;;;21.21;47.62;100814.19;5072661;28;45327;-56
2022/08/22 04:03:12;;;;;;;;;4.50;4.50;;;;;21.22;47.73;100807.91;5065716;27;45255;-56
2022/08/22 04:05:57;;;;;;;;;3.00;3.00;;;;;21.18;48.12;100801.97;5068432;27;45400;-56
2022/08/22 04:08:57;;;;;;;;;3.75;3.25;;;;;21.13;48.02;100803.25;5070263;27;46943;-56
2022/08/22 04:11:44;;;;;;;;;4.25;4.25;;;;;21.10;47.88;100792.81;5073121;27;45226;-56
2022/08/22 04:14:22;;;;;;;;;8.25;4.25;;;;;21.10;47.80;100798.97;5063953;28;45465;-56
2022/08/22 04:17:33;;;;;;;;;5.00;4.00;;;;;21.10;47.75;100792.81;5067679;27;45443;-57
2022/08/22 04:20:10;;;;;;;;;6.25;3.75;;;;;21.11;48.09;100792.72;4997330;28;46280;-56
2022/08/22 04:23:16;;;;;;;;;6.50;3.25;;;;;21.09;49.01;100802.63;5018920;28;45375;-56
2022/08/22 04:25:50;;;;;;;;;3.50;3.50;;;;;21.04;48.32;100810.06;5065605;27;45320;-56
2022/08/22 04:28:21;;;;;;;;;7.75;4.00;;;;;21.00;48.57;100808.56;5052653;27;45538;-56
2022/08/22 04:31:12;;;;;;;;;4.00;4.00;;;;;20.97;48.70;100795.50;5075428;27;46215;-56
2022/08/22 04:33:54;;;;;;;;;3.50;3.00;;;;;20.94;48.58;100801.03;5078554;27;45308;-55
2022/08/22 04:36:26;;;;;;;;;5.25;3.75;;;;;20.94;48.68;100799.19;5066496;27;45280;-55
2022/08/22 04:38:56;;;;;;;;;4.50;3.00;;;;;20.94;48.61;100799.19;5066206;28;45317;-54
2022/08/22 04:41:37;;;;;;;;;5.50;4.50;;;;;20.92;49.02;100803.78;5075724;27;47606;-55
2022/08/22 04:44:10;;;;;;;;;3.25;3.00;;;;;20.88;48.51;100796.97;5061334;28;45280;-55
2022/08/22 04:46:44;;;;;;;;;5.00;3.00;;;;;20.88;48.98;100796.13;5043209;28;45217;-56
2022/08/22 04:49:18;;;;;;;;;4.50;3.00;;;;;20.86;48.70;100802.41;5062063;28;45451;-56
2022/08/22 04:51:48;;;;;;;;;3.00;2.00;;;;;20.86;48.94;100801.56;5046132;28;46185;-56
2022/08/22 04:54:35;;;;;;;;;4.75;4.00;;;;;20.82;49.22;100808.91;5067873;28;45403;-56
2022/08/22 04:57:13;;;;;;;;;6.00;4.25;;;;;20.84;48.85;100819.41;5055066;28;45382;-56
2022/08/22 04:59:38;;;;;;;;;6.00;4.00;;;;;20.84;49.34;100825.59;5080766;27;45345;-55
2022/08/22 05:02:08;;;;;;;;;9.50;5.25;;;;;20.85;48.55;100829.94;5080176;27;64817;-55
2022/08/22 05:04:38;;;;;;;;;4.50;4.50;;;;;20.86;49.04;100825.50;5073985;28;45877;-56
2022/08/22 05:07:09;;;;;;;;;5.25;3.25;;;;;20.85;48.71;100819.31;5063214;27;45330;-57
2022/08/22 05:09:38;;;;;;;;;6.25;4.00;;;;;20.87;49.14;100827.19;5053006;28;45312;-56
2022/08/22 05:12:10;;;;;;;;;5.75;4.00;;;;;20.86;49.18;100833.47;5052026;28;45544;-55
2022/08/22 05:14:58;;;;;;;;;5.50;4.00;;;;;20.85;48.79;100848.56;5052924;28;45850;-56
2022/08/22 05:17:27;;;;;;;;;5.50;5.50;;;;;20.83;49.29;100844.31;5044172;28;45276;-57
2022/08/22 05:19:55;;;;;;;;;4.50;4.00;;;;;20.84;48.83;100838.91;5044982;28;45313;-57
2022/08/22 05:22:26;;;;;;;;;5.00;3.00;;;;;20.87;48.82;100843.16;5051108;28;46252;-56
2022/08/22 05:24:56;;;;;;;;;5.75;4.00;;;;;20.87;48.90;100835.16;5060678;27;45418;-56
2022/08/22 05:27:29;;;;;;;;;4.00;4.00;;;;;20.88;48.93;100833.38;5081000;27;45336;-55
2022/08/22 05:30:01;;;;;;;;;4.75;3.25;;;;;20.86;49.17;100839.66;5048164;28;45363;-55
2022/08/22 05:32:41;;;;;;;;;8.00;4.50;;;;;20.89;49.06;100838.56;5060358;28;46182;-56
2022/08/22 05:35:07;;;;;;;;;3.00;3.00;;;;;20.89;49.25;100849.22;5061410;28;45338;-56
2022/08/22 05:37:43;;;;;;;;;6.00;3.00;;;;;20.91;49.19;100855.31;5060619;28;45355;-56
2022/08/22 05:40:16;;;;;;;;;6.00;4.75;;;;;20.91;48.98;100857.09;5059613;28;45414;-56
2022/08/22 05:42:42;;;;;;;;;4.25;4.25;;;;;20.92;49.07;100864.97;5077244;27;45420;-56
2022/08/22 05:45:08;;;;;;;;;3.75;3.75;;;;;20.93;48.75;100866.69;5076166;27;49348;-57
2022/08/22 05:48:03;;;;;;;;;6.50;4.25;;;;;20.95;49.09;100859.44;5075040;27;45270;-56
2022/08/22 05:50:37;;;;;;;;;8.00;4.75;;;;;20.97;49.10;100864.66;5060972;28;45552;-56
2022/08/22 05:53:16;;;;;;;;;5.25;5.00;;;;;21.00;48.98;100859.97;5079519;28;46932;-57
2022/08/22 05:55:47;;;;;;;;;9.50;5.00;;;;;21.02;48.50;100855.41;5061930;27;45316;-54
2022/08/22 05:58:37;;;;;;;;;8.75;4.00;;;;;21.04;48.87;100860.63;5061881;27;45338;-56
2022/08/22 06:01:40;;;;;;;;;4.50;3.25;;;;;21.09;48.54;100860.28;5067099;28;46916;-57
2022/08/22 06:04:11;;;;;;;;;6.25;5.25;;;;;21.12;48.96;100862.75;5065234;28;46548;-57
2022/08/22 06:06:42;;;;;;;;;5.25;3.00;;;;;21.13;48.73;100867.97;5079974;28;45784;-54
2022/08/22 06:09:22;;;;;;;;;6.75;5.50;;;;;21.11;48.61;100867.22;5075422;27;45463;-56
2022/08/22 06:12:04;;;;;;;;;8.25;4.75;;;;;21.11;48.64;100877.03;5073840;28;45735;-56
2022/08/22 06:14:55;;;;;;;;;4.75;4.00;;;;;21.09;48.70;100870.94;5061394;28;46042;-56
2022/08/22 06:17:25;;;;;;;;;10.00;5.00;;;;;21.08;48.94;100877.22;5061452;28;45429;-55
2022/08/22 06:19:52;;;;;;;;;5.75;5.00;;;;;21.09;48.93;100860.28;5059917;28;45502;-55
2022/08/22 06:22:29;;;;;;;;;7.50;4.00;;;;;21.07;48.33;100862.19;5032131;28;45587;-55
2022/08/22 06:25:04;;;;;;;;;9.00;3.75;;;;;21.05;48.92;100859.66;5061122;28;46259;-55
2022/08/22 06:27:29;;;;;;;;;6.25;5.00;;;;;21.08;48.77;100869.25;5051299;28;45714;-55
2022/08/22 06:29:58;;;;;;;;;7.00;4.00;;;;;21.09;48.71;100871.81;5046163;28;68005;-55
2022/08/22 06:32:26;;;;;;;;;6.00;4.00;;;;;21.10;48.18;100875.31;5059286;28;45438;-57
2022/08/22 06:34:56;;;;;;;;;8.50;6.75;;;;;21.11;48.22;100874.38;5063808;28;46494;-56
2022/08/22 06:37:31;;;;;;;;;6.25;5.00;;;;;21.12;48.66;100879.56;5078072;28;45302;-57
2022/08/22 06:39:57;;;;;;;;;7.75;4.25;;;;;21.17;48.45;100873.94;5091695;27;45329;-57
2022/08/22 06:42:26;;;;;;;;;4.00;4.00;;;;;21.21;48.41;100870.06;5058054;28;72006;-55
2022/08/22 06:45:11;;;;;;;;;5.00;4.50;;;;;21.26;48.69;100862.63;5056563;28;46046;-55
2022/08/22 06:47:59;;;;;;;;;5.00;4.50;;;;;21.30;48.70;100869.47;5074414;27;45287;-55
2022/08/22 06:50:29;;;;;;;;;3.25;3.00;;;;;21.36;48.32;100868.19;5067446;28;45332;-55
2022/08/22 06:52:55;;;;;;;;;5.00;5.00;;;;;21.40;48.25;100867.84;5057267;28;45264;-56
2022/08/22 06:55:21;;;;;;;;;6.00;5.00;;;;;21.45;48.10;100859.53;5079359;27;45438;-55
2022/08/22 06:57:56;;;;;;;;;5.00;4.00;;;;;21.53;48.50;100856.34;5078870;27;45757;-55
2022/08/22 07:00:22;;;;;;;;;8.50;4.25;;;;;21.57;48.33;100866.69;5060596;28;45325;-56
2022/08/22 07:02:54;;;;;;;;;6.00;4.00;;;;;21.63;48.32;100862.72;5058934;28;70805;-56
2022/08/22 07:05:23;;;;;;;;;6.00;5.00;;;;;21.70;48.25;100863.13;5054892;28;45312;-53
2022/08/22 07:07:50;;;;;;;;;7.50;4.00;;;;;21.74;47.57;100868.16;5067656;28;45474;-56
2022/08/22 07:10:16;;;;;;;;;8.75;5.75;;;;;21.81;47.85;100876.53;5050923;28;45441;-56
2022/08/22 07:12:48;;;;;;;;;7.75;5.25;;;;;21.87;47.60;100886.75;5060477;28;45517;-56
2022/08/22 07:15:23;;;;;;;;;7.75;6.75;;;;;21.92;47.34;100889.06;5057688;28;46415;-55
2022/08/22 07:17:51;;;;;;;;;7.25;5.50;;;;;21.94;47.79;100884.50;5060454;27;45677;-55
2022/08/22 07:20:30;;;;;;;;;7.50;5.75;;;;;22.00;47.99;100890.22;5071521;28;45327;-55
2022/08/22 07:23:04;;;;;;;;;6.00;6.00;;;;;22.03;47.52;100890.94;5070715;28;45343;-53
2022/08/22 07:25:30;;;;;;;;;4.75;4.00;;;;;22.07;47.29;100887.97;5067080;28;46213;-55
2022/08/22 07:28:13;;;;;;;;;8.00;5.25;;;;;22.10;47.69;100894.91;5073755;28;45433;-55
2022/08/22 07:30:54;;;;;;;;;4.25;4.00;;;;;22.11;47.14;100897.44;5051662;27;45458;-55
2022/08/22 07:33:31;;;;;;;;;5.00;4.00;;;;;22.14;47.22;100894.56;5042703;28;45463;-55
2022/08/22 07:36:00;;;;;;;;;6.00;5.00;;;;;22.17;47.00;100899.66;5059951;28;46173;-56
2022/08/22 07:38:31;;;;;;;;;5.00;4.00;;;;;22.19;47.34;100899.56;5078137;28;45326;-55
2022/08/22 07:41:06;;;;;;;;;6.50;5.00;;;;;22.24;46.97;100902.75;5060016;28;45396;-56
2022/08/22 07:43:45;;;;;;;;;7.25;5.00;;;;;22.29;47.33;100900.63;5071959;28;45497;-56
2022/08/22 07:46:22;;;;;;;;;6.00;3.50;;;;;22.32;46.75;100896.84;5058525;28;45404;-56
2022/08/22 07:48:53;;;;;;;;;9.00;5.00;;;;;22.33;46.72;100902.09;5060106;28;45797;-56
2022/08/22 07:51:28;;;;;;;;;6.50;5.25;;;;;22.36;46.83;100901.00;5061631;27;45336;-55
2022/08/22 07:54:13;;;;;;;;;7.75;6.00;;;;;22.42;46.76;100903.22;5044889;28;45318;-60
2022/08/22 07:56:58;;;;;;;;;5.00;4.50;;;;;22.46;46.76;100911.84;5053413;28;46458;-56
2022/08/22 07:59:26;;;;;;;;;9.00;4.50;;;;;22.49;46.79;100914.28;5081721;27;45471;-55
2022/08/22 08:01:55;;;;;;;;;5.75;3.50;;;;;22.50;46.79;100911.47;5061717;28;45335;-56
2022/08/22 08:04:25;;;;;;;;;8.25;6.50;;;;;22.51;46.60;100907.03;5074202;27;45459;-56
2022/08/22 08:06:51;;;;;;;;;7.00;6.00;;;;;22.50;46.65;100900.81;5075691;27;47222;-54
2022/08/22 08:09:18;;;;;;;;;7.25;5.50;;;;;22.55;46.49;100911.16;5074559;27;45629;-56
2022/08/22 08:11:44;;;;;;;;;6.25;5.00;;;;;22.60;46.71;100910.81;5040421;28;45382;-56
2022/08/22 08:14:12;;;;;;;;;10.25;5.00;;;;;22.64;46.78;100910.44;5052234;28;45311;-56
2022/08/22 08:16:56;;;;;;;;;7.00;6.00;;;;;22.68;46.39;100909.28;5046677;28;47460;-56
2022/08/22 08:19:23;;;;;;;;;4.75;3.75;;;;;22.71;46.11;100914.34;5073338;28;45299;-55
2022/08/22 08:21:52;;;;;;;;;5.75;5.75;;;;;22.79;46.56;100924.47;5081491;27;45281;-55
2022/08/22 08:24:38;;;;;;;;;4.50;4.50;;;;;22.86;46.44;100927.50;5063744;28;45538;-54
2022/08/22 08:29:55;;;;;;;;;9.75;4.00;;;;;22.98;46.57;100918.56;5063093;27;45905;-54
2022/08/22 08:32:26;;;;;;;;;8.25;5.00;;;;;23.02;46.18;100919.19;5062507;28;45472;-54
2022/08/22 08:34:52;;;;;;;;;5.50;5.00;;;;;23.07;45.72;100911.69;5061222;28;45356;-55
2022/08/22 08:37:35;;;;;;;;;6.25;5.50;;;;;23.07;45.76;100909.91;5053805;28;46074;-53
2022/08/22 08:40:03;;;;;;;;;17.25;11.75;;;;;23.09;46.08;100907.13;5062817;28;45165;-55
2022/08/22 08:45:43;;;;;;;;;7.25;4.50;;;;;23.15;46.07;100903.97;5054013;28;45317;-55
2022/08/22 08:48:31;;;;;;;;;7.50;5.50;;;;;23.21;45.60;100907.97;5080715;27;46192;-55
2022/08/22 08:51:10;;;;;;;;;8.25;7.00;;;;;23.25;45.63;100904.97;5050100;28;45297;-55
2022/08/22 08:54:30;;;;;;;;;6.50;4.00;;;;;23.28;45.94;100896.72;5076564;27;45502;-56
2022/08/22 08:57:36;;;;;;;;;8.50;5.25;;;;;23.33;45.95;100885.66;4991207;28;45362;-56
2022/08/22 09:00:11;;;;;;;;;6.00;5.00;;;;;23.38;46.04;100878.13;5049215;28;46402;-56
2022/08/22 09:02:52;;;;;;;;;4.75;4.75;;;;;23.45;45.37;100878.50;5056412;28;45802;-55
2022/08/22 09:06:00;;;;;;;;;13.75;7.00;;;;;23.50;46.10;100869.16;5062796;27;45293;-56
2022/08/22 09:08:44;;;;;;;;;13.25;5.50;;;;;23.57;45.65;100868.66;5048235;28;45453;-54
2022/08/22 09:11:24;;;;;;;;;5.00;2.75;;;;;23.64;45.44;100870.72;5070738;27;45523;-56
2022/08/22 09:14:20;;;;;;;;;11.25;6.00;;;;;23.73;45.16;100871.81;5066770;27;45756;-54
2022/08/22 09:17:15;;;;;;;;;6.75;4.00;;;;;23.86;45.53;100875.22;5064923;27;46287;-53
2022/08/22 09:20:07;;;;;;;;;9.75;5.75;;;;;24.24;44.71;100881.06;5079622;27;45412;-56
2022/08/22 09:23:10;;;;;;;;;5.50;5.50;;;;;24.67;44.04;100876.69;5052464;28;46199;-56
2022/08/22 09:25:44;;;;;;;;;4.00;3.00;;;;;25.17;43.71;100869.66;5070188;28;45266;-54
2022/08/22 09:28:09;;;;;;;;;6.00;4.25;;;;;25.60;41.46;100864.25;5078079;27;45778;-55
2022/08/22 09:31:08;;;;;;;;;7.00;2.00;;;;;26.00;41.66;100869.59;5067285;27;45350;-55
2022/08/22 09:33:53;;;;;;;;;4.00;3.75;;;;;26.48;41.12;100867.94;5078173;27;46369;-56
2022/08/22 09:36:51;;;;;;;;;14.25;14.00;;;;;26.95;40.35;100869.88;5076628;27;45413;-54
2022/08/22 09:39:23;;;;;;;;;6.00;2.75;;;;;27.44;39.22;100863.38;5047080;28;45369;-54
2022/08/22 09:42:24;;;;;;;;;5.25;2.75;;;;;27.93;39.61;100865.00;5068123;27;45533;-55
2022/08/22 09:45:15;;;;;;;;;3.00;2.50;;;;;28.21;37.90;100855.88;5075415;27;45501;-53
2022/08/22 09:47:57;;;;;;;;;2.00;2.00;;;;;28.42;37.63;100852.03;5075731;27;45256;-55
2022/08/22 09:51:03;;;;;;;;;4.00;2.00;;;;;28.54;37.41;100852.66;5052349;28;45294;-55
2022/08/22 09:53:59;;;;;;;;;4.25;3.00;;;;;28.56;34.81;100843.44;5053455;28;45423;-54
2022/08/22 09:56:38;;;;;;;;;6.00;4.50;;;;;28.73;36.52;100851.63;5079836;28;45367;-56
2022/08/22 09:59:23;;;;;;;;;6.50;4.00;;;;;28.94;36.58;100843.19;5078079;27;45193;-54
2022/08/22 10:02:04;;;;;;;;;0.00;0.00;;;;;29.14;36.02;100849.19;5076992;27;45425;-56
2022/08/22 10:04:55;;;;;;;;;3.00;2.00;;;;;29.33;36.19;100851.66;5045014;28;45442;-56
2022/08/22 10:07:33;;;;;;;;;3.25;2.25;;;;;29.53;35.48;100848.72;5057337;28;45334;-56
2022/08/22 10:10:35;;;;;;;;;4.75;3.75;;;;;29.75;34.79;100850.00;5072307;27;45720;-57
2022/08/22 10:13:19;;;;;;;;;7.50;3.00;;;;;29.86;34.78;100847.00;5071142;27;45472;-60
2022/08/22 10:15:55;;;;;;;;;5.00;4.00;;;;;29.96;34.72;100846.88;5071315;28;45275;-57
2022/08/22 10:18:23;;;;;;;;;6.00;4.25;;;;;30.02;34.61;100843.50;5044765;27;45520;-58
2022/08/22 10:21:09;;;;;;;;;10.25;6.00;;;;;30.17;34.51;100840.97;5070456;28;45261;-58
2022/08/22 10:23:45;;;;;;;;;2.25;2.25;;;;;30.31;34.31;100849.44;5044432;28;45429;-58
2022/08/22 10:26:25;;;;;;;;;55.75;44.00;;;;;30.43;34.31;100846.25;5042180;27;45574;-57
2022/08/22 10:29:24;;;;;;;;;6.25;5.00;;;;;30.64;33.88;100831.41;5068106;28;45321;-56
2022/08/22 10:31:54;;;;;;;;;9.50;7.00;;;;;30.80;32.80;100839.47;5077084;27;45700;-57
2022/08/22 10:34:26;;;;;;;;;5.25;4.50;;;;;30.90;33.50;100844.69;5054763;28;45414;-56
2022/08/22 10:37:09;;;;;;;;;8.25;7.25;;;;;30.99;33.57;100842.84;5077041;28;45282;-57
2022/08/22 10:39:40;;;;;;;;;9.00;6.00;;;;;31.08;32.82;100843.69;5075963;27;45638;-56
2022/08/22 10:42:11;;;;;;;;;5.00;5.00;;;;;31.07;32.88;100842.81;5078100;27;45653;-55
2022/08/22 10:45:15;;;;;;;;;2.75;2.75;;;;;31.06;32.09;100842.97;5077185;28;45263;-57
2022/08/22 10:47:56;;;;;;;;;3.00;3.00;;;;;31.05;32.71;100839.44;5073843;28;45343;-56
2022/08/22 10:50:41;;;;;;;;;5.00;3.75;;;;;31.28;32.55;100841.41;5070754;27;46234;-57
2022/08/22 10:53:32;;;;;;;;;5.00;2.00;;;;;31.43;31.91;100839.66;5083681;27;45314;-56
2022/08/22 10:56:02;;;;;;;;;7.25;4.00;;;;;31.38;31.67;100836.66;5065074;27;45278;-57
2022/08/22 10:58:32;;;;;;;;;6.00;3.75;;;;;31.16;31.95;100841.78;5079510;28;45380;-56
2022/08/22 11:01:00;;;;;;;;;4.50;4.50;;;;;30.89;32.71;100844.88;5068170;28;45404;-57
2022/08/22 11:03:38;;;;;;;;;8.50;7.50;;;;;30.57;32.94;100841.19;5042611;28;45828;-57
2022/08/22 11:06:08;;;;;;;;;8.25;6.00;;;;;30.27;33.36;100835.41;5077721;27;45265;-56
2022/08/22 11:08:48;;;;;;;;;14.75;13.25;;;;;30.06;34.21;100836.75;5055246;28;45387;-57
2022/08/22 11:11:17;;;;;;;;;13.00;8.25;;;;;29.87;33.52;100843.31;5069467;28;45377;-57
2022/08/22 11:14:04;;;;;;;;;16.50;15.50;;;;;29.67;34.11;100831.91;5076929;27;45294;-58
2022/08/22 11:16:53;;;;;;;;;8.75;6.00;;;;;29.45;34.27;100843.31;5072079;27;45504;-58
2022/08/22 11:19:46;;;;;;;;;8.75;6.00;;;;;29.28;35.10;100839.69;5059994;28;45344;-57
2022/08/22 11:22:20;;;;;;;;;6.25;4.00;;;;;29.20;34.13;100834.25;5050586;28;46237;-57
2022/08/22 11:25:16;;;;;;;;;6.00;4.75;;;;;29.10;34.85;100826.25;5069301;28;45670;-57
2022/08/22 11:27:59;;;;;;;;;4.50;3.50;;;;;28.99;34.63;100830.06;5065189;28;45438;-57
2022/08/22 11:30:33;;;;;;;;;3.00;3.00;;;;;28.86;35.07;100832.34;5073708;28;45573;-56
2022/08/22 11:33:17;;;;;;;;;2.50;2.00;;;;;28.78;35.39;100833.97;5051615;28;46391;-57
2022/08/22 11:36:04;;;;;;;;;3.25;2.50;;;;;28.76;35.28;100827.91;5044903;28;45617;-57
2022/08/22 11:38:29;;;;;;;;;3.75;3.75;;;;;28.72;35.32;100831.94;5092657;27;45382;-56
2022/08/22 11:41:24;;;;;;;;;14.00;11.00;;;;;28.64;35.59;100823.78;5080246;27;45360;-57
2022/08/22 11:43:57;;;;;;;;;19.75;17.00;;;;;28.55;35.75;100830.13;5072202;27;45789;-58
2022/08/22 11:46:25;;;;;;;;;2.75;1.50;;;;;28.51;35.75;100831.41;5061839;27;45312;-57
2022/08/22 11:49:14;;;;;;;;;2.00;2.00;;;;;28.45;35.88;100821.25;5082684;27;45288;-57
2022/08/22 11:51:56;;;;;;;;;3.25;2.00;;;;;28.38;36.34;100819.19;5051561;28;45460;-58
2022/08/22 11:54:49;;;;;;;;;3.00;3.00;;;;;28.35;36.07;100824.03;5074465;28;46227;-56
2022/08/22 11:57:33;;;;;;;;;1.25;1.25;;;;;28.25;36.73;100816.03;5069089;28;45316;-58
2022/08/22 12:00:27;;;;;;;;;2.00;2.00;;;;;28.16;36.32;100816.97;5063438;28;45484;-58
2022/08/22 12:03:18;;;;;;;;;4.00;3.00;;;;;28.11;36.68;100819.28;5074041;27;45221;-57
2022/08/22 12:06:04;;;;;;;;;3.75;2.00;;;;;28.07;36.45;100823.28;5044996;28;47394;-58
2022/08/22 12:08:32;;;;;;;;;2.00;2.00;;;;;28.02;36.87;100821.88;5052313;27;45808;-57
2022/08/22 12:11:06;;;;;;;;;3.00;3.00;;;;;27.95;37.12;100817.28;5063654;28;45306;-58
2022/08/22 12:14:03;;;;;;;;;2.25;1.75;;;;;27.88;37.46;100814.31;5079342;27;45453;-57
2022/08/22 12:16:55;;;;;;;;;2.50;1.00;;;;;27.77;36.88;100818.06;5051387;27;46466;-56
2022/08/22 12:19:52;;;;;;;;;4.00;3.00;;;;;27.72;37.26;100804.22;5032962;28;45336;-56
2022/08/22 12:22:59;;;;;;;;;2.00;2.00;;;;;27.66;37.22;100807.53;5061278;28;45294;-56
2022/08/22 12:25:42;;;;;;;;;4.00;4.00;;;;;27.63;37.34;100805.13;5079049;27;45431;-57
2022/08/22 12:28:17;;;;;;;;;2.25;2.25;;;;;27.61;37.77;100801.75;5081460;27;45530;-57
2022/08/22 12:30:53;;;;;;;;;3.00;3.00;;;;;27.58;37.52;100794.00;5078796;27;45475;-57